createdAt,value
2018-12-06T00:00:09.264Z,22.20
2018-12-06T00:03:07.758Z,22.20
2018-12-06T00:06:03.683Z,22.20
2018-12-06T00:09:02.863Z,22.10
2018-12-06T00:11:58.661Z,22.10
2018-12-06T00:14:54.885Z,22.10
2018-12-06T00:17:50.555Z,22.10
2018-12-06T00:20:46.109Z,22.10
2018-12-06T00:23:41.568Z,22.10
2018-12-06T00:26:37.190Z,22.10
2018-12-06T00:29:33.131Z,22.10
2018-12-06T00:32:28.802Z,22.00
2018-12-06T00:35:27.042Z,22.00
2018-12-06T00:38:30.114Z,22.00
2018-12-06T00:41:18.301Z,22.00
2018-12-06T00:44:13.766Z,22.00
2018-12-06T00:47:09.485Z,22.00
2018-12-06T00:50:04.923Z,22.00
2018-12-06T00:53:00.347Z,22.00
2018-12-06T00:55:56.536Z,22.00
2018-12-06T00:58:51.901Z,22.00
2018-12-06T01:01:47.875Z,21.90
2018-12-06T01:04:43.597Z,22.00
2018-12-06T01:07:39.129Z,22.00
2018-12-06T01:10:34.906Z,22.00
2018-12-06T01:13:30.548Z,21.90
2018-12-06T01:16:26.422Z,21.90
2018-12-06T01:19:21.679Z,21.90
2018-12-06T01:22:17.342Z,21.90
2018-12-06T01:25:13.621Z,21.90
2018-12-06T01:28:09.917Z,21.90
2018-12-06T01:31:05.677Z,21.90
2018-12-06T01:34:01.516Z,21.90
2018-12-06T01:36:57.477Z,21.90
2018-12-06T01:39:53.044Z,22.00
2018-12-06T01:42:48.446Z,22.00
2018-12-06T01:45:43.946Z,22.00
2018-12-06T01:48:39.784Z,22.00
2018-12-06T01:51:38.096Z,22.00
2018-12-06T01:54:33.922Z,22.10
2018-12-06T01:57:29.695Z,22.10
2018-12-06T02:00:25.081Z,22.20
2018-12-06T02:03:20.552Z,22.20
2018-12-06T02:06:16.426Z,22.20
2018-12-06T02:09:16.483Z,22.30
2018-12-06T02:12:12.215Z,22.30
2018-12-06T02:15:08.083Z,22.30
2018-12-06T02:18:04.444Z,22.40
2018-12-06T02:21:00.120Z,22.40
2018-12-06T02:23:55.658Z,22.40
2018-12-06T02:26:51.459Z,22.40
2018-12-06T02:29:58.893Z,22.40
2018-12-06T02:32:55.225Z,22.50
2018-12-06T02:35:51.143Z,22.50
2018-12-06T02:38:51.172Z,22.50
2018-12-06T02:41:43.487Z,22.60
2018-12-06T02:44:39.843Z,22.60
2018-12-06T02:47:35.972Z,22.60
2018-12-06T02:50:32.000Z,22.60
2018-12-06T02:53:27.791Z,22.60
2018-12-06T02:56:24.827Z,22.60
2018-12-06T02:59:20.575Z,22.60
2018-12-06T03:02:17.085Z,22.60
2018-12-06T03:05:13.257Z,22.60
2018-12-06T03:08:08.907Z,22.70
2018-12-06T03:11:04.870Z,22.70
2018-12-06T03:14:00.661Z,22.70
2018-12-06T03:16:56.751Z,22.70
2018-12-06T03:19:52.570Z,22.70
2018-12-06T03:22:48.826Z,22.70
2018-12-06T03:25:44.393Z,22.80
2018-12-06T03:28:40.498Z,22.80
2018-12-06T03:31:36.165Z,22.80
2018-12-06T03:34:32.192Z,22.80
2018-12-06T03:37:28.384Z,22.90
2018-12-06T03:40:24.343Z,22.90
2018-12-06T03:43:20.141Z,22.90
2018-12-06T03:46:17.214Z,22.90
2018-12-06T03:49:16.448Z,23.00
2018-12-06T03:52:15.640Z,23.00
2018-12-06T03:55:11.639Z,23.10
2018-12-06T03:58:07.440Z,23.10
2018-12-06T04:01:03.216Z,23.10
2018-12-06T04:03:59.800Z,23.20
2018-12-06T04:06:55.750Z,23.20
2018-12-06T04:09:51.226Z,23.30
2018-12-06T04:12:46.829Z,23.30
2018-12-06T04:15:44.898Z,23.40
2018-12-06T04:18:40.710Z,23.40
2018-12-06T04:21:36.201Z,23.50
2018-12-06T04:24:31.783Z,23.50
2018-12-06T04:27:27.611Z,23.60
2018-12-06T04:30:23.362Z,23.60
2018-12-06T04:33:19.015Z,23.70
2018-12-06T04:36:14.866Z,23.70
2018-12-06T04:39:12.952Z,23.80
2018-12-06T04:42:08.890Z,23.80
2018-12-06T04:45:04.653Z,23.90
2018-12-06T04:48:00.863Z,23.90
2018-12-06T04:50:58.112Z,24.00
2018-12-06T04:53:53.881Z,24.00
2018-12-06T04:56:51.002Z,24.00
2018-12-06T04:59:48.349Z,24.10
2018-12-06T05:02:45.920Z,24.20
2018-12-06T05:05:44.920Z,24.20
2018-12-06T05:08:38.266Z,24.20
2018-12-06T05:11:34.077Z,24.30
2018-12-06T05:14:33.375Z,24.40
2018-12-06T05:17:29.342Z,24.40
2018-12-06T05:20:27.328Z,24.50
2018-12-06T05:23:25.304Z,24.50
2018-12-06T05:26:22.521Z,24.60
2018-12-06T05:29:21.277Z,24.60
2018-12-06T05:32:21.116Z,24.70
2018-12-06T05:35:17.934Z,24.70
2018-12-06T05:38:14.678Z,24.80
2018-12-06T05:41:10.961Z,24.90
2018-12-06T05:44:10.133Z,24.90
2018-12-06T05:47:06.222Z,25.00
2018-12-06T05:50:09.045Z,25.00
2018-12-06T05:53:03.998Z,25.00
2018-12-06T05:56:11.085Z,25.10
2018-12-06T05:59:10.380Z,25.10
2018-12-06T06:02:08.684Z,25.20
2018-12-06T06:05:18.100Z,25.20
2018-12-06T06:08:16.350Z,25.30
2018-12-06T06:11:13.480Z,25.30
2018-12-06T06:14:10.040Z,25.40
2018-12-06T06:17:09.890Z,25.40
2018-12-06T06:20:07.786Z,25.50
2018-12-06T06:23:04.775Z,25.50
2018-12-06T06:26:03.526Z,25.60
2018-12-06T06:29:03.437Z,25.60
2018-12-06T06:32:05.133Z,25.70
2018-12-06T06:35:11.139Z,25.80
2018-12-06T06:38:17.189Z,25.80
2018-12-06T06:41:15.110Z,25.80
2018-12-06T06:44:13.915Z,25.90
2018-12-06T06:47:09.952Z,25.90
2018-12-06T06:50:06.353Z,25.90
2018-12-06T06:53:02.866Z,26.00
2018-12-06T06:55:59.192Z,26.00
2018-12-06T06:58:59.450Z,26.10
2018-12-06T07:01:56.851Z,26.10
2018-12-06T07:04:55.676Z,26.10
2018-12-06T07:07:53.490Z,26.20
2018-12-06T07:10:50.856Z,26.20
2018-12-06T07:13:48.964Z,26.30
2018-12-06T07:16:48.638Z,26.40
2018-12-06T07:19:56.070Z,26.40
2018-12-06T07:22:56.153Z,26.50
2018-12-06T07:25:58.071Z,26.60
2018-12-06T07:29:01.070Z,26.70
2018-12-06T07:32:19.331Z,26.70
2018-12-06T07:35:32.163Z,26.70
2018-12-06T07:38:33.311Z,26.70
2018-12-06T07:41:30.218Z,26.80
2018-12-06T07:44:29.808Z,26.80
2018-12-06T07:47:26.355Z,26.80
2018-12-06T07:50:23.036Z,26.80
2018-12-06T07:53:19.692Z,26.80
2018-12-06T07:56:19.608Z,26.90
2018-12-06T07:59:12.559Z,26.90
2018-12-06T08:02:09.936Z,26.90
2018-12-06T08:05:06.573Z,27.00
2018-12-06T08:08:06.804Z,27.00
2018-12-06T08:11:04.758Z,27.00
2018-12-06T08:14:21.993Z,27.10
2018-12-06T08:17:19.807Z,27.10
2018-12-06T08:20:16.628Z,27.10
2018-12-06T08:23:14.058Z,27.10
2018-12-06T08:26:14.727Z,27.10
2018-12-06T08:29:13.126Z,27.10
2018-12-06T08:32:23.782Z,27.10
2018-12-06T08:35:23.153Z,27.10
2018-12-06T08:38:23.034Z,27.20
2018-12-06T08:41:19.907Z,27.20
2018-12-06T08:44:21.281Z,27.20
2018-12-06T08:47:12.530Z,27.20
2018-12-06T08:50:12.806Z,27.20
2018-12-06T08:53:14.364Z,27.20
2018-12-06T08:56:11.147Z,27.30
2018-12-06T08:59:07.310Z,27.30
2018-12-06T09:02:08.651Z,27.30
2018-12-06T09:05:06.275Z,27.30
2018-12-06T09:08:05.516Z,27.30
2018-12-06T09:11:04.542Z,27.40
2018-12-06T09:14:01.981Z,27.40
2018-12-06T09:16:58.095Z,27.40
2018-12-06T09:19:56.627Z,27.40
2018-12-06T09:23:01.385Z,27.40
2018-12-06T09:26:05.901Z,27.40
2018-12-06T09:29:21.872Z,27.40
2018-12-06T09:32:29.841Z,27.40
2018-12-06T09:35:26.029Z,27.40
2018-12-06T09:38:40.738Z,27.40
2018-12-06T09:41:44.008Z,27.40
2018-12-06T09:44:43.297Z,27.50
2018-12-06T09:47:43.334Z,27.50
2018-12-06T09:50:41.461Z,27.50
2018-12-06T09:53:38.551Z,27.50
2018-12-06T09:56:37.665Z,27.50
2018-12-06T09:59:33.361Z,27.50
2018-12-06T10:02:29.850Z,27.50
2018-12-06T10:05:26.622Z,27.50
2018-12-06T10:08:22.491Z,27.50
2018-12-06T10:11:17.997Z,27.50
2018-12-06T10:14:13.757Z,27.40
2018-12-06T10:17:10.897Z,27.40
2018-12-06T10:20:12.224Z,27.40
2018-12-06T10:26:37.466Z,27.40
2018-12-06T10:29:37.578Z,27.40
2018-12-06T10:32:35.299Z,27.40
2018-12-06T10:35:48.461Z,27.40
2018-12-06T10:38:58.008Z,27.30
2018-12-06T10:41:57.004Z,27.40
2018-12-06T10:48:48.767Z,27.30
2018-12-06T10:51:58.961Z,27.30
2018-12-06T10:54:57.866Z,27.30
2018-12-06T10:58:03.109Z,27.30
2018-12-06T11:01:13.630Z,27.30
2018-12-06T11:04:20.971Z,27.30
2018-12-06T11:07:22.262Z,27.30
2018-12-06T11:10:20.100Z,27.30
2018-12-06T11:13:59.749Z,27.20
2018-12-06T11:17:08.056Z,27.20
2018-12-06T11:20:06.502Z,27.20
2018-12-06T11:23:03.996Z,27.10
2018-12-06T11:26:00.567Z,27.10
2018-12-06T11:28:56.540Z,27.10
2018-12-06T11:31:53.089Z,27.10
2018-12-06T11:34:49.797Z,27.10
2018-12-06T11:37:46.333Z,27.10
2018-12-06T11:40:42.460Z,27.10
2018-12-06T11:43:39.419Z,27.10
2018-12-06T11:46:36.618Z,27.10
2018-12-06T11:49:41.400Z,27.10
2018-12-06T11:52:41.913Z,27.00
2018-12-06T11:55:38.607Z,27.10
2018-12-06T11:58:36.125Z,27.00
2018-12-06T12:04:00.131Z,27.00
2018-12-06T12:07:00.202Z,26.90
2018-12-06T12:10:01.792Z,26.90
2018-12-06T12:12:59.059Z,26.80
2018-12-06T12:15:58.573Z,26.80
2018-12-06T12:18:55.619Z,26.80
2018-12-06T12:21:52.446Z,26.80
2018-12-06T12:24:58.206Z,26.70
2018-12-06T12:27:52.934Z,26.70
2018-12-06T12:30:50.229Z,26.70
2018-12-06T12:33:48.576Z,26.60
2018-12-06T12:36:46.302Z,26.60
2018-12-06T12:39:44.157Z,26.60
2018-12-06T12:42:46.929Z,26.50
2018-12-06T12:45:42.893Z,26.50
2018-12-06T12:48:42.196Z,26.40
2018-12-06T12:51:41.834Z,26.40
2018-12-06T12:54:39.005Z,26.40
2018-12-06T12:57:35.470Z,26.30
2018-12-06T13:00:32.019Z,26.20
2018-12-06T13:03:29.645Z,26.20
2018-12-06T13:06:30.267Z,26.10
2018-12-06T13:09:27.426Z,26.10
2018-12-06T13:12:24.475Z,26.00
2018-12-06T13:15:21.258Z,26.00
2018-12-06T13:18:16.938Z,26.00
2018-12-06T13:21:13.774Z,25.90
2018-12-06T13:24:10.216Z,25.90
2018-12-06T13:27:06.339Z,25.80
2018-12-06T13:30:02.570Z,25.80
2018-12-06T13:32:59.099Z,25.80
2018-12-06T13:35:55.794Z,25.80
2018-12-06T13:38:52.280Z,25.70
2018-12-06T13:41:49.140Z,25.70
2018-12-06T13:44:45.994Z,25.70
2018-12-06T13:47:42.930Z,25.60
2018-12-06T13:50:39.685Z,25.60
2018-12-06T13:53:36.323Z,25.60
2018-12-06T13:56:36.076Z,25.60
2018-12-06T13:59:29.832Z,25.50
2018-12-06T14:02:25.996Z,25.50
2018-12-06T14:05:22.237Z,25.50
2018-12-06T14:08:19.504Z,25.50
2018-12-06T14:11:16.266Z,25.50
2018-12-06T14:14:12.806Z,25.50
2018-12-06T14:17:08.940Z,25.40
2018-12-06T14:20:05.329Z,25.40
2018-12-06T14:23:01.916Z,25.40
2018-12-06T14:25:57.943Z,25.40
2018-12-06T14:28:54.375Z,25.30
2018-12-06T14:31:50.192Z,25.30
2018-12-06T14:34:46.649Z,25.30
2018-12-06T14:37:42.763Z,25.30
2018-12-06T14:40:39.129Z,25.30
2018-12-06T14:43:35.680Z,25.30
2018-12-06T14:46:31.882Z,25.30
2018-12-06T14:49:28.246Z,25.30
2018-12-06T14:52:24.301Z,25.20
2018-12-06T14:55:20.610Z,25.20
2018-12-06T14:58:17.712Z,25.20
2018-12-06T15:01:15.115Z,25.20
2018-12-06T15:04:12.634Z,25.20
2018-12-06T15:07:10.514Z,25.20
2018-12-06T15:10:07.608Z,25.20
2018-12-06T15:13:04.049Z,25.20
2018-12-06T15:16:01.767Z,25.20
2018-12-06T15:18:57.920Z,25.10
2018-12-06T15:21:54.692Z,25.10
2018-12-06T15:24:52.301Z,25.10
2018-12-06T15:27:49.440Z,25.10
2018-12-06T15:30:46.223Z,25.10
2018-12-06T15:33:42.774Z,25.00
2018-12-06T15:36:39.269Z,25.00
2018-12-06T15:39:35.774Z,25.00
2018-12-06T15:42:32.898Z,25.00
2018-12-06T15:45:29.503Z,25.00
2018-12-06T15:48:26.245Z,25.00
2018-12-06T15:51:22.660Z,25.00
2018-12-06T15:54:19.343Z,25.00
2018-12-06T15:57:16.373Z,25.00
2018-12-06T16:00:15.677Z,25.00
2018-12-06T16:03:12.006Z,25.10
2018-12-06T16:06:08.554Z,25.10
2018-12-06T16:09:05.433Z,25.20
2018-12-06T16:12:03.398Z,25.10
2018-12-06T16:14:59.815Z,25.20
2018-12-06T16:17:55.888Z,25.20
2018-12-06T16:20:56.387Z,25.20
2018-12-06T16:23:49.433Z,25.20
2018-12-06T16:26:46.464Z,25.20
2018-12-06T16:29:51.215Z,25.20
2018-12-06T16:32:40.915Z,25.20
2018-12-06T16:35:38.750Z,25.20
2018-12-06T16:38:35.881Z,25.20
2018-12-06T16:41:33.237Z,25.20
2018-12-06T16:44:29.966Z,25.20
2018-12-06T16:47:26.634Z,25.20
2018-12-06T16:50:23.297Z,25.10
2018-12-06T16:53:19.961Z,25.10
2018-12-06T16:56:20.053Z,25.00
2018-12-06T16:59:16.443Z,25.00
2018-12-06T17:02:14.480Z,24.90
2018-12-06T17:05:11.718Z,24.90
2018-12-06T17:08:08.721Z,24.90
2018-12-06T17:11:04.799Z,24.80
2018-12-06T17:14:01.819Z,24.80
2018-12-06T17:16:58.301Z,24.70
2018-12-06T17:19:54.834Z,24.70
2018-12-06T17:22:51.578Z,24.70
2018-12-06T17:25:47.590Z,24.60
2018-12-06T17:28:44.008Z,24.60
2018-12-06T17:31:40.677Z,24.60
2018-12-06T17:34:36.894Z,24.60
2018-12-06T17:37:33.032Z,24.50
2018-12-06T17:40:29.350Z,24.50
2018-12-06T17:43:25.516Z,24.50
2018-12-06T17:46:21.257Z,24.50
2018-12-06T17:49:17.276Z,24.50
2018-12-06T17:52:13.645Z,24.40
2018-12-06T17:55:09.902Z,24.40
2018-12-06T17:58:06.441Z,24.40
2018-12-06T18:01:02.670Z,24.40
2018-12-06T18:03:58.301Z,24.40
2018-12-06T18:06:54.427Z,24.40
2018-12-06T18:09:50.857Z,24.40
2018-12-06T18:12:47.063Z,24.30
2018-12-06T18:15:43.836Z,24.30
2018-12-06T18:18:40.535Z,24.30
2018-12-06T18:21:36.389Z,24.30
2018-12-06T18:24:33.045Z,24.30
2018-12-06T18:27:29.872Z,24.20
2018-12-06T18:30:26.344Z,24.20
2018-12-06T18:33:23.056Z,24.20
2018-12-06T18:36:22.649Z,24.20
2018-12-06T18:39:16.661Z,24.20
2018-12-06T18:42:12.716Z,24.20
2018-12-06T18:45:08.477Z,24.20
2018-12-06T18:48:04.344Z,24.20
2018-12-06T18:51:00.766Z,24.10
2018-12-06T18:53:56.543Z,24.10
2018-12-06T18:56:52.608Z,24.10
2018-12-06T18:59:48.761Z,24.10
2018-12-06T19:02:44.445Z,24.10
2018-12-06T19:05:40.282Z,24.10
2018-12-06T19:08:36.720Z,24.10
2018-12-06T19:11:33.259Z,24.10
2018-12-06T19:14:29.497Z,24.00
2018-12-06T19:17:26.337Z,24.00
2018-12-06T19:20:22.673Z,24.00
2018-12-06T19:23:18.597Z,24.00
2018-12-06T19:26:14.932Z,24.00
2018-12-06T19:29:19.142Z,24.00
2018-12-06T19:32:15.381Z,23.90
2018-12-06T19:35:10.890Z,23.90
2018-12-06T19:38:12.978Z,23.90
2018-12-06T19:41:06.529Z,23.90
2018-12-06T19:44:02.619Z,23.90
2018-12-06T19:46:58.536Z,23.90
2018-12-06T19:49:54.943Z,23.90
2018-12-06T19:52:51.088Z,23.90
2018-12-06T19:55:46.976Z,23.90
2018-12-06T19:58:43.039Z,24.00
2018-12-06T20:01:39.031Z,24.00
2018-12-06T20:04:35.478Z,24.00
2018-12-06T20:07:31.807Z,24.00
2018-12-06T20:10:28.021Z,24.10
2018-12-06T20:13:24.759Z,24.10
2018-12-06T20:16:23.810Z,24.10
2018-12-06T20:19:20.318Z,24.20
2018-12-06T20:22:16.390Z,24.20
2018-12-06T20:25:12.558Z,24.20
2018-12-06T20:28:08.718Z,24.20
2018-12-06T20:31:07.177Z,24.20
2018-12-06T20:34:03.329Z,24.20
2018-12-06T20:36:59.440Z,24.20
2018-12-06T20:39:57.882Z,24.20
2018-12-06T20:42:52.206Z,24.20
2018-12-06T20:45:48.245Z,24.20
2018-12-06T20:48:47.549Z,24.10
2018-12-06T20:51:44.015Z,24.10
2018-12-06T20:54:40.110Z,24.10
2018-12-06T20:57:37.446Z,24.00
2018-12-06T21:00:33.190Z,24.00
2018-12-06T21:03:29.176Z,24.00
2018-12-06T21:06:25.866Z,23.90
2018-12-06T21:09:21.979Z,23.90
2018-12-06T21:12:18.125Z,23.80
2018-12-06T21:15:14.030Z,23.80
2018-12-06T21:18:10.263Z,23.80
2018-12-06T21:21:06.372Z,23.70
2018-12-06T21:24:02.757Z,23.70
2018-12-06T21:27:02.554Z,23.70
2018-12-06T21:29:58.952Z,23.70
2018-12-06T21:32:54.549Z,23.60
2018-12-06T21:35:53.903Z,23.60
2018-12-06T21:38:50.047Z,23.60
2018-12-06T21:41:46.047Z,23.50
2018-12-06T21:44:42.277Z,23.50
2018-12-06T21:47:38.418Z,23.50
2018-12-06T21:50:34.859Z,23.50
2018-12-06T21:53:30.636Z,23.50
2018-12-06T21:56:26.613Z,23.50
2018-12-06T21:59:22.934Z,23.50
2018-12-06T22:02:32.990Z,23.50
2018-12-06T22:05:29.436Z,23.50
2018-12-06T22:08:25.934Z,23.40
2018-12-06T22:11:22.087Z,23.50
2018-12-06T22:14:18.162Z,23.50
2018-12-06T22:17:14.912Z,23.40
2018-12-06T22:20:12.333Z,23.40
2018-12-06T22:23:11.692Z,23.40
2018-12-06T22:26:07.654Z,23.40
2018-12-06T22:29:04.090Z,23.40
2018-12-06T22:32:00.750Z,23.40
2018-12-06T22:34:56.669Z,23.40
2018-12-06T22:37:53.300Z,23.40
2018-12-06T22:40:49.637Z,23.40
2018-12-06T22:43:45.466Z,23.40
2018-12-06T22:46:41.789Z,23.30
2018-12-06T22:49:39.148Z,23.30
2018-12-06T22:52:34.462Z,23.30
2018-12-06T22:55:32.924Z,23.30
2018-12-06T22:58:28.960Z,23.30
2018-12-06T23:01:44.404Z,23.30
2018-12-06T23:04:40.504Z,23.20
2018-12-06T23:07:37.632Z,23.20
2018-12-06T23:10:33.621Z,23.20
2018-12-06T23:13:29.894Z,23.20
2018-12-06T23:16:26.022Z,23.20
2018-12-06T23:19:22.320Z,23.20
2018-12-06T23:22:18.697Z,23.20
2018-12-06T23:25:15.638Z,23.10
2018-12-06T23:28:13.063Z,23.10
2018-12-06T23:31:08.614Z,23.10
2018-12-06T23:34:04.742Z,23.10
2018-12-06T23:37:00.663Z,23.10
2018-12-06T23:39:56.871Z,23.10
2018-12-06T23:42:53.848Z,23.00
2018-12-06T23:45:53.691Z,23.00
2018-12-06T23:48:46.508Z,23.00
2018-12-06T23:51:46.448Z,23.00
2018-12-06T23:54:41.821Z,23.00
2018-12-06T23:57:38.382Z,23.00
